sensor_id;sensor_type;location;lat;lon;timestamp;P1;durP1;ratioP1;P2;durP2;ratioP2
12441;SDS011;6285;48.804;9.220;2022-12-19T00:01:05;44.17;;;23.35;;
12441;SDS011;6285;48.804;9.220;2022-12-19T00:03:40;40.13;;;22.90;;
12441;SDS011;6285;48.804;9.220;2022-12-19T00:06:08;43.80;;;23.97;;
12441;SDS011;6285;48.804;9.220;2022-12-19T00:08:35;43.13;;;24.13;;
12441;SDS011;6285;48.804;9.220;2022-12-19T00:11:02;45.70;;;24.52;;
12441;SDS011;6285;48.804;9.220;2022-12-19T00:13:30;42.65;;;23.73;;
12441;SDS011;6285;48.804;9.220;2022-12-19T00:16:00;43.53;;;23.73;;
12441;SDS011;6285;48.804;9.220;2022-12-19T00:18:27;40.73;;;23.30;;
12441;SDS011;6285;48.804;9.220;2022-12-19T00:20:55;41.60;;;23.60;;
12441;SDS011;6285;48.804;9.220;2022-12-19T00:23:24;47.00;;;24.60;;
12441;SDS011;6285;48.804;9.220;2022-12-19T00:25:51;47.15;;;24.33;;
12441;SDS011;6285;48.804;9.220;2022-12-19T00:28:18;47.25;;;25.38;;
12441;SDS011;6285;48.804;9.220;2022-12-19T00:30:45;45.27;;;24.70;;
12441;SDS011;6285;48.804;9.220;2022-12-19T00:33:12;43.33;;;24.57;;
12441;SDS011;6285;48.804;9.220;2022-12-19T00:35:40;43.67;;;23.83;;
12441;SDS011;6285;48.804;9.220;2022-12-19T00:38:07;48.03;;;26.10;;
12441;SDS011;6285;48.804;9.220;2022-12-19T00:40:35;46.05;;;24.75;;
12441;SDS011;6285;48.804;9.220;2022-12-19T00:43:02;46.15;;;24.15;;
12441;SDS011;6285;48.804;9.220;2022-12-19T00:45:29;46.33;;;25.10;;
12441;SDS011;6285;48.804;9.220;2022-12-19T00:47:56;47.17;;;25.97;;
12441;SDS011;6285;48.804;9.220;2022-12-19T00:50:23;51.25;;;25.40;;
12441;SDS011;6285;48.804;9.220;2022-12-19T00:52:50;45.15;;;25.13;;
12441;SDS011;6285;48.804;9.220;2022-12-19T00:55:18;47.78;;;24.10;;
12441;SDS011;6285;48.804;9.220;2022-12-19T00:57:47;44.30;;;24.10;;
12441;SDS011;6285;48.804;9.220;2022-12-19T01:00:14;44.17;;;24.83;;
12441;SDS011;6285;48.804;9.220;2022-12-19T01:02:42;46.90;;;24.57;;
12441;SDS011;6285;48.804;9.220;2022-12-19T01:05:09;47.78;;;25.75;;
12441;SDS011;6285;48.804;9.220;2022-12-19T01:07:36;48.53;;;26.05;;
12441;SDS011;6285;48.804;9.220;2022-12-19T01:10:04;48.00;;;25.83;;
12441;SDS011;6285;48.804;9.220;2022-12-19T01:12:31;51.15;;;26.23;;
12441;SDS011;6285;48.804;9.220;2022-12-19T01:15:14;44.83;;;25.13;;
12441;SDS011;6285;48.804;9.220;2022-12-19T01:17:41;45.40;;;24.98;;
12441;SDS011;6285;48.804;9.220;2022-12-19T01:20:08;49.53;;;25.75;;
12441;SDS011;6285;48.804;9.220;2022-12-19T01:22:36;46.75;;;24.95;;
12441;SDS011;6285;48.804;9.220;2022-12-19T01:25:03;50.58;;;26.10;;
12441;SDS011;6285;48.804;9.220;2022-12-19T01:27:31;43.85;;;24.67;;
12441;SDS011;6285;48.804;9.220;2022-12-19T01:29:58;47.05;;;24.25;;
12441;SDS011;6285;48.804;9.220;2022-12-19T01:32:26;42.65;;;24.00;;
12441;SDS011;6285;48.804;9.220;2022-12-19T01:34:53;43.87;;;24.60;;
12441;SDS011;6285;48.804;9.220;2022-12-19T01:37:20;46.80;;;24.95;;
12441;SDS011;6285;48.804;9.220;2022-12-19T01:39:48;45.97;;;25.57;;
12441;SDS011;6285;48.804;9.220;2022-12-19T01:42:15;47.03;;;26.10;;
12441;SDS011;6285;48.804;9.220;2022-12-19T01:47:50;45.13;;;25.40;;
12441;SDS011;6285;48.804;9.220;2022-12-19T01:50:19;48.03;;;24.47;;
12441;SDS011;6285;48.804;9.220;2022-12-19T01:52:49;45.45;;;26.38;;
12441;SDS011;6285;48.804;9.220;2022-12-19T01:55:16;46.00;;;26.07;;
12441;SDS011;6285;48.804;9.220;2022-12-19T01:57:44;46.90;;;27.30;;
12441;SDS011;6285;48.804;9.220;2022-12-19T02:00:11;46.87;;;26.83;;
12441;SDS011;6285;48.804;9.220;2022-12-19T02:02:40;50.87;;;28.60;;
12441;SDS011;6285;48.804;9.220;2022-12-19T02:05:11;47.42;;;26.77;;
12441;SDS011;6285;48.804;9.220;2022-12-19T02:07:38;47.63;;;27.33;;
12441;SDS011;6285;48.804;9.220;2022-12-19T02:10:06;48.38;;;27.52;;
12441;SDS011;6285;48.804;9.220;2022-12-19T02:12:35;50.08;;;27.30;;
12441;SDS011;6285;48.804;9.220;2022-12-19T02:15:03;52.17;;;29.10;;
12441;SDS011;6285;48.804;9.220;2022-12-19T02:17:33;46.05;;;27.33;;
12441;SDS011;6285;48.804;9.220;2022-12-19T02:22:55;49.20;;;27.60;;
12441;SDS011;6285;48.804;9.220;2022-12-19T02:25:38;45.80;;;26.00;;
12441;SDS011;6285;48.804;9.220;2022-12-19T02:28:28;50.88;;;28.20;;
12441;SDS011;6285;48.804;9.220;2022-12-19T02:31:01;48.20;;;27.40;;
12441;SDS011;6285;48.804;9.220;2022-12-19T02:33:31;46.15;;;26.95;;
12441;SDS011;6285;48.804;9.220;2022-12-19T02:36:00;50.05;;;27.65;;
12441;SDS011;6285;48.804;9.220;2022-12-19T02:38:32;44.88;;;26.65;;
12441;SDS011;6285;48.804;9.220;2022-12-19T02:41:03;49.65;;;28.35;;
12441;SDS011;6285;48.804;9.220;2022-12-19T02:43:32;49.05;;;28.85;;
12441;SDS011;6285;48.804;9.220;2022-12-19T02:46:02;51.60;;;29.37;;
12441;SDS011;6285;48.804;9.220;2022-12-19T02:48:30;49.27;;;27.63;;
12441;SDS011;6285;48.804;9.220;2022-12-19T02:50:57;49.20;;;27.30;;
12441;SDS011;6285;48.804;9.220;2022-12-19T02:53:25;50.33;;;28.30;;
12441;SDS011;6285;48.804;9.220;2022-12-19T02:55:55;49.87;;;27.80;;
12441;SDS011;6285;48.804;9.220;2022-12-19T02:58:40;49.60;;;27.97;;
12441;SDS011;6285;48.804;9.220;2022-12-19T03:01:13;50.43;;;27.73;;
12441;SDS011;6285;48.804;9.220;2022-12-19T03:03:45;48.47;;;28.37;;
12441;SDS011;6285;48.804;9.220;2022-12-19T03:06:16;46.47;;;26.70;;
12441;SDS011;6285;48.804;9.220;2022-12-19T03:08:45;45.90;;;27.00;;
12441;SDS011;6285;48.804;9.220;2022-12-19T03:11:13;51.80;;;28.23;;
12441;SDS011;6285;48.804;9.220;2022-12-19T03:13:41;48.43;;;27.30;;
12441;SDS011;6285;48.804;9.220;2022-12-19T03:16:11;47.93;;;27.27;;
12441;SDS011;6285;48.804;9.220;2022-12-19T03:18:39;45.28;;;26.23;;
12441;SDS011;6285;48.804;9.220;2022-12-19T03:21:07;48.92;;;28.23;;
12441;SDS011;6285;48.804;9.220;2022-12-19T03:23:37;45.40;;;27.10;;
12441;SDS011;6285;48.804;9.220;2022-12-19T03:26:05;47.73;;;25.53;;
12441;SDS011;6285;48.804;9.220;2022-12-19T03:28:33;46.42;;;26.85;;
12441;SDS011;6285;48.804;9.220;2022-12-19T03:31:03;45.97;;;26.10;;
12441;SDS011;6285;48.804;9.220;2022-12-19T03:33:32;44.50;;;25.77;;
12441;SDS011;6285;48.804;9.220;2022-12-19T03:36:00;46.70;;;25.38;;
12441;SDS011;6285;48.804;9.220;2022-12-19T03:38:31;45.67;;;25.83;;
12441;SDS011;6285;48.804;9.220;2022-12-19T03:41:00;48.15;;;25.42;;
12441;SDS011;6285;48.804;9.220;2022-12-19T03:43:28;45.38;;;25.05;;
12441;SDS011;6285;48.804;9.220;2022-12-19T03:45:55;45.20;;;24.67;;
12441;SDS011;6285;48.804;9.220;2022-12-19T03:48:25;44.67;;;24.85;;
12441;SDS011;6285;48.804;9.220;2022-12-19T03:50:58;44.15;;;26.00;;
12441;SDS011;6285;48.804;9.220;2022-12-19T03:53:30;46.23;;;26.70;;
12441;SDS011;6285;48.804;9.220;2022-12-19T03:56:02;50.47;;;25.77;;
12441;SDS011;6285;48.804;9.220;2022-12-19T03:58:32;47.60;;;25.60;;
12441;SDS011;6285;48.804;9.220;2022-12-19T04:01:00;40.97;;;24.13;;
12441;SDS011;6285;48.804;9.220;2022-12-19T04:03:29;42.28;;;24.05;;
12441;SDS011;6285;48.804;9.220;2022-12-19T04:05:58;42.28;;;24.48;;
12441;SDS011;6285;48.804;9.220;2022-12-19T04:08:26;41.85;;;24.27;;
12441;SDS011;6285;48.804;9.220;2022-12-19T04:10:56;44.63;;;25.13;;
12441;SDS011;6285;48.804;9.220;2022-12-19T04:13:26;47.53;;;25.27;;
12441;SDS011;6285;48.804;9.220;2022-12-19T04:15:57;43.15;;;23.90;;
12441;SDS011;6285;48.804;9.220;2022-12-19T04:18:31;46.67;;;25.33;;
12441;SDS011;6285;48.804;9.220;2022-12-19T04:21:01;45.75;;;24.27;;
12441;SDS011;6285;48.804;9.220;2022-12-19T04:23:30;46.92;;;24.35;;
12441;SDS011;6285;48.804;9.220;2022-12-19T04:25:58;41.63;;;24.23;;
12441;SDS011;6285;48.804;9.220;2022-12-19T04:28:29;40.05;;;22.55;;
12441;SDS011;6285;48.804;9.220;2022-12-19T04:30:59;42.83;;;24.30;;
12441;SDS011;6285;48.804;9.220;2022-12-19T04:33:27;41.45;;;23.38;;
12441;SDS011;6285;48.804;9.220;2022-12-19T04:35:54;47.55;;;24.42;;
12441;SDS011;6285;48.804;9.220;2022-12-19T04:38:23;41.22;;;22.63;;
12441;SDS011;6285;48.804;9.220;2022-12-19T04:40:50;40.92;;;23.23;;
12441;SDS011;6285;48.804;9.220;2022-12-19T04:43:17;47.30;;;24.65;;
12441;SDS011;6285;48.804;9.220;2022-12-19T04:45:45;43.90;;;24.45;;
12441;SDS011;6285;48.804;9.220;2022-12-19T04:48:12;46.80;;;24.63;;
12441;SDS011;6285;48.804;9.220;2022-12-19T04:50:39;43.60;;;23.17;;
12441;SDS011;6285;48.804;9.220;2022-12-19T04:53:07;47.42;;;24.52;;
12441;SDS011;6285;48.804;9.220;2022-12-19T04:55:35;46.80;;;24.52;;
12441;SDS011;6285;48.804;9.220;2022-12-19T04:58:04;47.88;;;23.95;;
12441;SDS011;6285;48.804;9.220;2022-12-19T05:00:31;43.70;;;23.80;;
12441;SDS011;6285;48.804;9.220;2022-12-19T05:02:58;42.20;;;21.75;;
12441;SDS011;6285;48.804;9.220;2022-12-19T05:05:25;47.97;;;24.92;;
12441;SDS011;6285;48.804;9.220;2022-12-19T05:07:52;42.28;;;23.80;;
12441;SDS011;6285;48.804;9.220;2022-12-19T05:10:19;44.08;;;24.20;;
12441;SDS011;6285;48.804;9.220;2022-12-19T05:12:48;46.25;;;22.30;;
12441;SDS011;6285;48.804;9.220;2022-12-19T05:15:15;44.55;;;23.95;;
12441;SDS011;6285;48.804;9.220;2022-12-19T05:17:42;49.58;;;24.63;;
12441;SDS011;6285;48.804;9.220;2022-12-19T05:20:09;42.80;;;23.20;;
12441;SDS011;6285;48.804;9.220;2022-12-19T05:22:37;45.10;;;23.35;;
12441;SDS011;6285;48.804;9.220;2022-12-19T05:25:04;44.35;;;23.65;;
12441;SDS011;6285;48.804;9.220;2022-12-19T05:27:31;43.50;;;22.45;;
12441;SDS011;6285;48.804;9.220;2022-12-19T05:29:59;46.03;;;24.60;;
12441;SDS011;6285;48.804;9.220;2022-12-19T05:32:28;40.97;;;23.10;;
12441;SDS011;6285;48.804;9.220;2022-12-19T05:34:56;39.92;;;22.88;;
12441;SDS011;6285;48.804;9.220;2022-12-19T05:37:23;47.45;;;24.33;;
12441;SDS011;6285;48.804;9.220;2022-12-19T05:39:50;47.72;;;24.98;;
12441;SDS011;6285;48.804;9.220;2022-12-19T05:42:17;47.63;;;25.00;;
12441;SDS011;6285;48.804;9.220;2022-12-19T05:44:44;46.33;;;24.63;;
12441;SDS011;6285;48.804;9.220;2022-12-19T05:47:13;43.08;;;22.40;;
12441;SDS011;6285;48.804;9.220;2022-12-19T05:49:40;45.97;;;25.20;;
12441;SDS011;6285;48.804;9.220;2022-12-19T05:52:07;41.95;;;23.08;;
12441;SDS011;6285;48.804;9.220;2022-12-19T05:54:34;42.20;;;22.77;;
12441;SDS011;6285;48.804;9.220;2022-12-19T05:57:01;45.65;;;23.65;;
12441;SDS011;6285;48.804;9.220;2022-12-19T05:59:28;43.10;;;23.50;;
12441;SDS011;6285;48.804;9.220;2022-12-19T06:01:55;45.78;;;23.85;;
12441;SDS011;6285;48.804;9.220;2022-12-19T06:04:23;40.70;;;23.65;;
12441;SDS011;6285;48.804;9.220;2022-12-19T06:06:51;43.15;;;22.83;;
12441;SDS011;6285;48.804;9.220;2022-12-19T06:09:18;41.47;;;23.08;;
12441;SDS011;6285;48.804;9.220;2022-12-19T06:11:45;42.28;;;23.92;;
12441;SDS011;6285;48.804;9.220;2022-12-19T06:14:12;42.60;;;22.73;;
12441;SDS011;6285;48.804;9.220;2022-12-19T06:16:39;44.00;;;23.90;;
12441;SDS011;6285;48.804;9.220;2022-12-19T06:19:06;40.97;;;22.02;;
12441;SDS011;6285;48.804;9.220;2022-12-19T06:21:34;47.90;;;24.50;;
12441;SDS011;6285;48.804;9.220;2022-12-19T06:24:02;43.85;;;23.30;;
12441;SDS011;6285;48.804;9.220;2022-12-19T06:26:29;44.13;;;24.10;;
12441;SDS011;6285;48.804;9.220;2022-12-19T06:28:56;44.13;;;22.10;;
12441;SDS011;6285;48.804;9.220;2022-12-19T06:31:23;41.67;;;24.17;;
12441;SDS011;6285;48.804;9.220;2022-12-19T06:33:50;45.47;;;23.65;;
12441;SDS011;6285;48.804;9.220;2022-12-19T06:36:18;41.15;;;23.13;;
12441;SDS011;6285;48.804;9.220;2022-12-19T06:38:47;44.58;;;24.42;;
12441;SDS011;6285;48.804;9.220;2022-12-19T06:41:14;42.88;;;22.55;;
12441;SDS011;6285;48.804;9.220;2022-12-19T06:44:00;46.20;;;22.38;;
12441;SDS011;6285;48.804;9.220;2022-12-19T06:46:27;46.15;;;23.92;;
12441;SDS011;6285;48.804;9.220;2022-12-19T06:48:55;42.50;;;23.67;;
12441;SDS011;6285;48.804;9.220;2022-12-19T06:51:22;49.88;;;25.10;;
12441;SDS011;6285;48.804;9.220;2022-12-19T06:53:50;43.47;;;22.52;;
12441;SDS011;6285;48.804;9.220;2022-12-19T06:56:17;47.00;;;24.23;;
12441;SDS011;6285;48.804;9.220;2022-12-19T06:58:45;46.17;;;25.10;;
12441;SDS011;6285;48.804;9.220;2022-12-19T07:01:16;42.53;;;23.73;;
12441;SDS011;6285;48.804;9.220;2022-12-19T07:03:43;47.20;;;23.80;;
12441;SDS011;6285;48.804;9.220;2022-12-19T07:06:11;44.05;;;24.15;;
12441;SDS011;6285;48.804;9.220;2022-12-19T07:08:38;45.45;;;24.15;;
12441;SDS011;6285;48.804;9.220;2022-12-19T07:11:06;44.72;;;23.83;;
12441;SDS011;6285;48.804;9.220;2022-12-19T07:13:33;43.95;;;23.95;;
12441;SDS011;6285;48.804;9.220;2022-12-19T07:16:01;44.42;;;25.33;;
12441;SDS011;6285;48.804;9.220;2022-12-19T07:18:28;42.75;;;23.75;;
12441;SDS011;6285;48.804;9.220;2022-12-19T07:20:56;45.28;;;24.75;;
12441;SDS011;6285;48.804;9.220;2022-12-19T07:23:23;44.53;;;25.05;;
12441;SDS011;6285;48.804;9.220;2022-12-19T07:25:50;47.95;;;24.80;;
12441;SDS011;6285;48.804;9.220;2022-12-19T07:28:19;46.97;;;23.98;;
12441;SDS011;6285;48.804;9.220;2022-12-19T07:30:46;42.67;;;22.88;;
12441;SDS011;6285;48.804;9.220;2022-12-19T07:33:13;46.13;;;23.85;;
12441;SDS011;6285;48.804;9.220;2022-12-19T07:35:40;45.28;;;23.85;;
12441;SDS011;6285;48.804;9.220;2022-12-19T07:38:07;42.65;;;23.98;;
12441;SDS011;6285;48.804;9.220;2022-12-19T07:40:34;41.88;;;23.00;;
12441;SDS011;6285;48.804;9.220;2022-12-19T07:43:02;39.85;;;22.45;;
12441;SDS011;6285;48.804;9.220;2022-12-19T07:45:34;41.28;;;22.65;;
12441;SDS011;6285;48.804;9.220;2022-12-19T07:48:02;45.72;;;23.40;;
12441;SDS011;6285;48.804;9.220;2022-12-19T07:50:29;43.80;;;23.08;;
12441;SDS011;6285;48.804;9.220;2022-12-19T07:52:57;41.47;;;23.05;;
12441;SDS011;6285;48.804;9.220;2022-12-19T07:55:23;41.08;;;23.55;;
12441;SDS011;6285;48.804;9.220;2022-12-19T07:57:51;39.20;;;22.83;;
12441;SDS011;6285;48.804;9.220;2022-12-19T08:00:19;38.80;;;22.70;;
12441;SDS011;6285;48.804;9.220;2022-12-19T08:02:47;40.30;;;22.08;;
12441;SDS011;6285;48.804;9.220;2022-12-19T08:05:14;37.65;;;21.85;;
12441;SDS011;6285;48.804;9.220;2022-12-19T08:07:43;39.60;;;22.60;;
12441;SDS011;6285;48.804;9.220;2022-12-19T08:10:11;42.15;;;22.45;;
12441;SDS011;6285;48.804;9.220;2022-12-19T08:12:39;38.38;;;21.65;;
12441;SDS011;6285;48.804;9.220;2022-12-19T08:15:06;38.65;;;21.80;;
12441;SDS011;6285;48.804;9.220;2022-12-19T08:17:33;40.45;;;22.42;;
12441;SDS011;6285;48.804;9.220;2022-12-19T08:20:01;37.83;;;21.80;;
12441;SDS011;6285;48.804;9.220;2022-12-19T08:22:28;40.03;;;22.25;;
12441;SDS011;6285;48.804;9.220;2022-12-19T08:24:56;39.65;;;21.02;;
12441;SDS011;6285;48.804;9.220;2022-12-19T08:27:23;41.65;;;23.27;;
12441;SDS011;6285;48.804;9.220;2022-12-19T08:29:50;45.00;;;21.67;;
12441;SDS011;6285;48.804;9.220;2022-12-19T08:32:17;43.72;;;23.15;;
12441;SDS011;6285;48.804;9.220;2022-12-19T08:34:44;44.85;;;22.60;;
12441;SDS011;6285;48.804;9.220;2022-12-19T08:37:13;37.53;;;23.50;;
12441;SDS011;6285;48.804;9.220;2022-12-19T08:39:40;40.42;;;21.85;;
12441;SDS011;6285;48.804;9.220;2022-12-19T08:42:07;46.70;;;22.75;;
12441;SDS011;6285;48.804;9.220;2022-12-19T08:44:34;39.25;;;23.45;;
12441;SDS011;6285;48.804;9.220;2022-12-19T08:47:01;40.22;;;20.90;;
12441;SDS011;6285;48.804;9.220;2022-12-19T08:49:28;38.45;;;21.88;;
12441;SDS011;6285;48.804;9.220;2022-12-19T08:51:55;39.28;;;22.55;;
12441;SDS011;6285;48.804;9.220;2022-12-19T08:54:24;37.20;;;21.27;;
12441;SDS011;6285;48.804;9.220;2022-12-19T08:56:51;39.42;;;23.08;;
12441;SDS011;6285;48.804;9.220;2022-12-19T08:59:18;38.00;;;21.15;;
12441;SDS011;6285;48.804;9.220;2022-12-19T09:01:45;39.38;;;21.70;;
12441;SDS011;6285;48.804;9.220;2022-12-19T09:04:12;39.20;;;22.63;;
12441;SDS011;6285;48.804;9.220;2022-12-19T09:06:39;39.47;;;22.33;;
12441;SDS011;6285;48.804;9.220;2022-12-19T09:09:06;39.00;;;21.45;;
12441;SDS011;6285;48.804;9.220;2022-12-19T09:11:35;39.70;;;22.52;;
12441;SDS011;6285;48.804;9.220;2022-12-19T09:14:02;37.08;;;21.90;;
12441;SDS011;6285;48.804;9.220;2022-12-19T09:16:29;37.17;;;20.92;;
12441;SDS011;6285;48.804;9.220;2022-12-19T09:18:57;40.95;;;21.98;;
12441;SDS011;6285;48.804;9.220;2022-12-19T09:21:24;38.35;;;21.38;;
12441;SDS011;6285;48.804;9.220;2022-12-19T09:23:53;39.65;;;20.73;;
12441;SDS011;6285;48.804;9.220;2022-12-19T09:26:22;39.88;;;20.80;;
12441;SDS011;6285;48.804;9.220;2022-12-19T09:28:50;34.90;;;20.52;;
12441;SDS011;6285;48.804;9.220;2022-12-19T09:31:18;38.75;;;20.92;;
12441;SDS011;6285;48.804;9.220;2022-12-19T09:33:46;39.35;;;21.27;;
12441;SDS011;6285;48.804;9.220;2022-12-19T09:36:14;39.97;;;20.75;;
12441;SDS011;6285;48.804;9.220;2022-12-19T09:38:42;37.70;;;22.08;;
12441;SDS011;6285;48.804;9.220;2022-12-19T09:41:17;35.50;;;20.88;;
12441;SDS011;6285;48.804;9.220;2022-12-19T09:43:53;38.47;;;21.65;;
12441;SDS011;6285;48.804;9.220;2022-12-19T09:46:26;36.80;;;19.70;;
12441;SDS011;6285;48.804;9.220;2022-12-19T09:48:54;35.75;;;20.58;;
12441;SDS011;6285;48.804;9.220;2022-12-19T09:51:25;34.00;;;19.55;;
12441;SDS011;6285;48.804;9.220;2022-12-19T09:54:01;38.90;;;20.42;;
12441;SDS011;6285;48.804;9.220;2022-12-19T09:56:31;33.15;;;21.02;;
12441;SDS011;6285;48.804;9.220;2022-12-19T09:59:04;37.17;;;19.50;;
12441;SDS011;6285;48.804;9.220;2022-12-19T10:01:36;31.48;;;19.95;;
12441;SDS011;6285;48.804;9.220;2022-12-19T10:04:08;33.63;;;19.40;;
12441;SDS011;6285;48.804;9.220;2022-12-19T10:06:37;34.00;;;19.90;;
12441;SDS011;6285;48.804;9.220;2022-12-19T10:09:07;33.58;;;20.58;;
12441;SDS011;6285;48.804;9.220;2022-12-19T10:11:42;41.88;;;20.63;;
12441;SDS011;6285;48.804;9.220;2022-12-19T10:14:21;34.67;;;20.58;;
12441;SDS011;6285;48.804;9.220;2022-12-19T10:16:54;35.30;;;20.50;;
12441;SDS011;6285;48.804;9.220;2022-12-19T10:19:32;36.42;;;21.15;;
12441;SDS011;6285;48.804;9.220;2022-12-19T10:22:02;32.22;;;20.73;;
12441;SDS011;6285;48.804;9.220;2022-12-19T10:24:40;32.47;;;19.10;;
12441;SDS011;6285;48.804;9.220;2022-12-19T10:27:12;33.83;;;20.10;;
12441;SDS011;6285;48.804;9.220;2022-12-19T10:29:46;28.45;;;18.30;;
12441;SDS011;6285;48.804;9.220;2022-12-19T10:32:16;30.85;;;19.83;;
12441;SDS011;6285;48.804;9.220;2022-12-19T10:34:46;31.58;;;19.75;;
12441;SDS011;6285;48.804;9.220;2022-12-19T10:37:16;34.78;;;20.33;;
12441;SDS011;6285;48.804;9.220;2022-12-19T10:39:50;28.95;;;19.55;;
12441;SDS011;6285;48.804;9.220;2022-12-19T10:42:26;32.90;;;19.58;;
12441;SDS011;6285;48.804;9.220;2022-12-19T10:44:58;30.85;;;19.85;;
12441;SDS011;6285;48.804;9.220;2022-12-19T10:47:27;32.13;;;19.10;;
12441;SDS011;6285;48.804;9.220;2022-12-19T10:49:54;33.53;;;20.65;;
12441;SDS011;6285;48.804;9.220;2022-12-19T10:55:09;34.25;;;19.15;;
12441;SDS011;6285;48.804;9.220;2022-12-19T10:57:46;31.20;;;19.65;;
12441;SDS011;6285;48.804;9.220;2022-12-19T11:00:16;33.33;;;20.55;;
12441;SDS011;6285;48.804;9.220;2022-12-19T11:02:44;33.90;;;19.98;;
12441;SDS011;6285;48.804;9.220;2022-12-19T11:05:19;29.83;;;19.92;;
12441;SDS011;6285;48.804;9.220;2022-12-19T11:07:57;31.90;;;20.15;;
12441;SDS011;6285;48.804;9.220;2022-12-19T11:10:32;31.00;;;19.50;;
12441;SDS011;6285;48.804;9.220;2022-12-19T11:13:00;31.95;;;19.02;;
12441;SDS011;6285;48.804;9.220;2022-12-19T11:15:28;31.65;;;20.45;;
12441;SDS011;6285;48.804;9.220;2022-12-19T11:18:04;33.17;;;20.40;;
12441;SDS011;6285;48.804;9.220;2022-12-19T11:20:32;33.42;;;20.90;;
12441;SDS011;6285;48.804;9.220;2022-12-19T11:22:59;34.25;;;20.67;;
12441;SDS011;6285;48.804;9.220;2022-12-19T11:25:30;33.63;;;20.05;;
12441;SDS011;6285;48.804;9.220;2022-12-19T11:27:58;31.27;;;20.58;;
12441;SDS011;6285;48.804;9.220;2022-12-19T11:30:30;33.60;;;20.52;;
12441;SDS011;6285;48.804;9.220;2022-12-19T11:33:07;33.95;;;21.00;;
12441;SDS011;6285;48.804;9.220;2022-12-19T11:35:44;33.05;;;20.83;;
12441;SDS011;6285;48.804;9.220;2022-12-19T11:38:11;32.72;;;19.30;;
12441;SDS011;6285;48.804;9.220;2022-12-19T11:40:43;32.03;;;19.55;;
12441;SDS011;6285;48.804;9.220;2022-12-19T11:43:14;34.88;;;20.35;;
12441;SDS011;6285;48.804;9.220;2022-12-19T11:45:47;30.23;;;19.50;;
12441;SDS011;6285;48.804;9.220;2022-12-19T11:48:18;29.33;;;19.70;;
12441;SDS011;6285;48.804;9.220;2022-12-19T11:50:49;32.05;;;21.52;;
12441;SDS011;6285;48.804;9.220;2022-12-19T11:53:18;33.78;;;20.20;;
12441;SDS011;6285;48.804;9.220;2022-12-19T11:55:47;30.83;;;19.42;;
12441;SDS011;6285;48.804;9.220;2022-12-19T11:58:16;29.30;;;19.80;;
12441;SDS011;6285;48.804;9.220;2022-12-19T12:00:46;29.33;;;19.65;;
12441;SDS011;6285;48.804;9.220;2022-12-19T12:03:26;36.97;;;20.15;;
12441;SDS011;6285;48.804;9.220;2022-12-19T12:05:57;29.45;;;19.33;;
12441;SDS011;6285;48.804;9.220;2022-12-19T12:08:29;31.05;;;20.35;;
12441;SDS011;6285;48.804;9.220;2022-12-19T12:11:00;31.23;;;19.08;;
12441;SDS011;6285;48.804;9.220;2022-12-19T12:13:30;34.63;;;21.02;;
12441;SDS011;6285;48.804;9.220;2022-12-19T12:16:01;30.38;;;20.08;;
12441;SDS011;6285;48.804;9.220;2022-12-19T12:18:36;30.08;;;19.90;;
12441;SDS011;6285;48.804;9.220;2022-12-19T12:21:06;31.15;;;20.30;;
12441;SDS011;6285;48.804;9.220;2022-12-19T12:23:38;31.80;;;20.45;;
12441;SDS011;6285;48.804;9.220;2022-12-19T12:26:10;34.28;;;20.80;;
12441;SDS011;6285;48.804;9.220;2022-12-19T12:28:43;30.48;;;19.90;;
12441;SDS011;6285;48.804;9.220;2022-12-19T12:31:18;29.60;;;19.52;;
12441;SDS011;6285;48.804;9.220;2022-12-19T12:33:54;29.63;;;19.30;;
12441;SDS011;6285;48.804;9.220;2022-12-19T12:36:26;33.72;;;20.27;;
12441;SDS011;6285;48.804;9.220;2022-12-19T12:39:01;32.83;;;19.77;;
12441;SDS011;6285;48.804;9.220;2022-12-19T12:41:38;31.38;;;20.33;;
12441;SDS011;6285;48.804;9.220;2022-12-19T12:44:29;36.90;;;22.15;;
12441;SDS011;6285;48.804;9.220;2022-12-19T12:46:59;33.00;;;20.80;;
12441;SDS011;6285;48.804;9.220;2022-12-19T12:49:31;37.50;;;21.83;;
12441;SDS011;6285;48.804;9.220;2022-12-19T12:51:59;32.33;;;20.75;;
12441;SDS011;6285;48.804;9.220;2022-12-19T12:54:28;33.85;;;20.92;;
12441;SDS011;6285;48.804;9.220;2022-12-19T12:56:57;34.78;;;22.48;;
12441;SDS011;6285;48.804;9.220;2022-12-19T12:59:25;33.95;;;21.98;;
12441;SDS011;6285;48.804;9.220;2022-12-19T13:01:53;36.20;;;22.17;;
12441;SDS011;6285;48.804;9.220;2022-12-19T13:04:26;38.72;;;22.67;;
12441;SDS011;6285;48.804;9.220;2022-12-19T13:07:01;35.90;;;23.20;;
12441;SDS011;6285;48.804;9.220;2022-12-19T13:09:29;33.42;;;21.55;;
12441;SDS011;6285;48.804;9.220;2022-12-19T13:11:59;33.38;;;22.00;;
12441;SDS011;6285;48.804;9.220;2022-12-19T13:14:46;33.78;;;22.48;;
12441;SDS011;6285;48.804;9.220;2022-12-19T13:17:17;35.65;;;22.02;;
12441;SDS011;6285;48.804;9.220;2022-12-19T13:19:53;36.25;;;21.35;;
12441;SDS011;6285;48.804;9.220;2022-12-19T13:22:35;31.60;;;21.02;;
12441;SDS011;6285;48.804;9.220;2022-12-19T13:25:10;33.03;;;22.10;;
12441;SDS011;6285;48.804;9.220;2022-12-19T13:27:56;31.65;;;21.60;;
12441;SDS011;6285;48.804;9.220;2022-12-19T13:30:23;36.30;;;21.88;;
12441;SDS011;6285;48.804;9.220;2022-12-19T13:33:06;31.60;;;21.73;;
12441;SDS011;6285;48.804;9.220;2022-12-19T13:35:34;31.60;;;21.33;;
12441;SDS011;6285;48.804;9.220;2022-12-19T13:38:02;40.08;;;21.95;;
12441;SDS011;6285;48.804;9.220;2022-12-19T13:40:32;37.55;;;23.13;;
12441;SDS011;6285;48.804;9.220;2022-12-19T13:43:17;37.17;;;23.48;;
12441;SDS011;6285;48.804;9.220;2022-12-19T13:46:03;37.30;;;23.38;;
12441;SDS011;6285;48.804;9.220;2022-12-19T13:48:32;40.00;;;23.50;;
12441;SDS011;6285;48.804;9.220;2022-12-19T13:51:02;36.78;;;24.05;;
12441;SDS011;6285;48.804;9.220;2022-12-19T13:53:30;43.72;;;23.88;;
12441;SDS011;6285;48.804;9.220;2022-12-19T13:55:58;37.75;;;23.80;;
12441;SDS011;6285;48.804;9.220;2022-12-19T13:58:27;35.30;;;24.27;;
12441;SDS011;6285;48.804;9.220;2022-12-19T14:00:56;34.30;;;23.70;;
12441;SDS011;6285;48.804;9.220;2022-12-19T14:03:25;34.45;;;23.17;;
12441;SDS011;6285;48.804;9.220;2022-12-19T14:05:57;32.00;;;22.73;;
12441;SDS011;6285;48.804;9.220;2022-12-19T14:08:25;38.13;;;23.48;;
12441;SDS011;6285;48.804;9.220;2022-12-19T14:10:53;39.33;;;22.73;;
12441;SDS011;6285;48.804;9.220;2022-12-19T14:13:21;36.15;;;23.45;;
12441;SDS011;6285;48.804;9.220;2022-12-19T14:16:14;40.30;;;24.90;;
12441;SDS011;6285;48.804;9.220;2022-12-19T14:18:46;32.65;;;21.58;;
12441;SDS011;6285;48.804;9.220;2022-12-19T14:21:15;38.67;;;21.80;;
12441;SDS011;6285;48.804;9.220;2022-12-19T14:23:42;31.02;;;21.40;;
12441;SDS011;6285;48.804;9.220;2022-12-19T14:26:11;32.33;;;20.83;;
12441;SDS011;6285;48.804;9.220;2022-12-19T14:28:40;35.63;;;20.33;;
12441;SDS011;6285;48.804;9.220;2022-12-19T14:31:10;32.35;;;19.67;;
12441;SDS011;6285;48.804;9.220;2022-12-19T14:33:40;29.15;;;18.05;;
12441;SDS011;6285;48.804;9.220;2022-12-19T14:36:08;27.38;;;17.10;;
12441;SDS011;6285;48.804;9.220;2022-12-19T14:38:35;29.15;;;18.08;;
12441;SDS011;6285;48.804;9.220;2022-12-19T14:41:03;28.40;;;18.50;;
12441;SDS011;6285;48.804;9.220;2022-12-19T14:43:31;27.60;;;17.98;;
12441;SDS011;6285;48.804;9.220;2022-12-19T14:46:13;28.02;;;18.45;;
12441;SDS011;6285;48.804;9.220;2022-12-19T14:48:53;29.50;;;19.02;;
12441;SDS011;6285;48.804;9.220;2022-12-19T14:51:25;27.02;;;18.83;;
12441;SDS011;6285;48.804;9.220;2022-12-19T14:54:02;30.27;;;19.23;;
12441;SDS011;6285;48.804;9.220;2022-12-19T14:56:30;25.40;;;19.10;;